Aviation Digital Data Service (ADDS)

Output produced by METARs form (2338 UTC 20 January 2019)
found at http://www.aviationweather.gov/metar/data/
 
METAR text: KLAS 202256Z 09004KT 10SM FEW180 OVC250 14/02 A2995 RMK AO2 SLP140 T01390017
Conditions at: KLAS (LAS VEGAS , NV, US) observed 2256 UTC 20 January 2019
Temperature: 13.9°C (57°F)
Dewpoint: 1.7°C (35°F) [RH = 43%]
Pressure (altimeter): 29.95 inches Hg (1014.3 mb)
[Sea-level pressure: 1014.0 mb]
Winds: from the E (90 degrees) at 5 MPH (4 knots; 2.1 m/s)
Visibility: 10 or more miles (16+ km)
Ceiling: 25000 feet AGL
Clouds: few clouds at 18000 feet AGL
overcast cloud deck at 25000 feet AGL
Weather: no significant weather observed at this time

METAR text: KLAS 202156Z 08006KT 10SM FEW200 OVC250 14/01 A3000 RMK AO2 SLP154 T01440011
Conditions at: KLAS (LAS VEGAS , NV, US) observed 2156 UTC 20 January 2019
Temperature: 14.4°C (58°F)
Dewpoint: 1.1°C (34°F) [RH = 40%]
Pressure (altimeter): 30.00 inches Hg (1016.0 mb)
[Sea-level pressure: 1015.4 mb]
Winds: from the E (80 degrees) at 7 MPH (6 knots; 3.1 m/s)
Visibility: 10 or more miles (16+ km)
Ceiling: 25000 feet AGL
Clouds: few clouds at 20000 feet AGL
overcast cloud deck at 25000 feet AGL
Weather: no significant weather observed at this time

METAR text: KLAS 202056Z 08005KT 10SM OVC250 14/01 A3003 RMK AO2 SLP166 T01390011 58036
Conditions at: KLAS (LAS VEGAS , NV, US) observed 2056 UTC 20 January 2019
Temperature: 13.9°C (57°F)
Dewpoint: 1.1°C (34°F) [RH = 42%]
Pressure (altimeter): 30.03 inches Hg (1017.0 mb)
[Sea-level pressure: 1016.6 mb]
Winds: from the E (80 degrees) at 6 MPH (5 knots; 2.6 m/s)
Visibility: 10 or more miles (16+ km)
Ceiling: 25000 feet AGL
Clouds: overcast cloud deck at 25000 feet AGL
Weather: no significant weather observed at this time

METAR text: KLAS 201956Z 08006KT 10SM OVC250 13/01 A3008 RMK AO2 SLP181 T01280011
Conditions at: KLAS (LAS VEGAS , NV, US) observed 1956 UTC 20 January 2019
Temperature: 12.8°C (55°F)
Dewpoint: 1.1°C (34°F) [RH = 45%]
Pressure (altimeter): 30.08 inches Hg (1018.7 mb)
[Sea-level pressure: 1018.1 mb]
Winds: from the E (80 degrees) at 7 MPH (6 knots; 3.1 m/s)
Visibility: 10 or more miles (16+ km)
Ceiling: 25000 feet AGL
Clouds: overcast cloud deck at 25000 feet AGL
Weather: no significant weather observed at this time

METAR text: KLAS 201856Z 08004KT 10SM OVC250 12/01 A3012 RMK AO2 SLP195 T01220011
Conditions at: KLAS (LAS VEGAS , NV, US) observed 1856 UTC 20 January 2019
Temperature: 12.2°C (54°F)
Dewpoint: 1.1°C (34°F) [RH = 47%]
Pressure (altimeter): 30.12 inches Hg (1020.1 mb)
[Sea-level pressure: 1019.5 mb]
Winds: from the E (80 degrees) at 5 MPH (4 knots; 2.1 m/s)
Visibility: 10 or more miles (16+ km)
Ceiling: 25000 feet AGL
Clouds: overcast cloud deck at 25000 feet AGL
Weather: no significant weather observed at this time

METAR text: KLAS 201756Z 00000KT 10SM OVC250 12/02 A3015 RMK AO2 SLP205 T01170022 10117 20061 55002
Conditions at: KLAS (LAS VEGAS , NV, US) observed 1756 UTC 20 January 2019
Temperature: 11.7°C (53°F)
Dewpoint: 2.2°C (36°F) [RH = 52%]
Pressure (altimeter): 30.15 inches Hg (1021.1 mb)
[Sea-level pressure: 1020.5 mb]
Winds: calm
Visibility: 10 or more miles (16+ km)
Ceiling: 25000 feet AGL
Clouds: overcast cloud deck at 25000 feet AGL
Weather: no significant weather observed at this time

METAR text: KLAS 201656Z 00000KT 10SM OVC250 09/03 A3014 RMK AO2 SLP206 T00890028
Conditions at: KLAS (LAS VEGAS , NV, US) observed 1656 UTC 20 January 2019
Temperature: 8.9°C (48°F)
Dewpoint: 2.8°C (37°F) [RH = 66%]
Pressure (altimeter): 30.14 inches Hg (1020.7 mb)
[Sea-level pressure: 1020.6 mb]
Winds: calm
Visibility: 10 or more miles (16+ km)
Ceiling: 25000 feet AGL
Clouds: overcast cloud deck at 25000 feet AGL
Weather: no significant weather observed at this time

METAR text: KLAS 201556Z 00000KT 10SM OVC250 07/02 A3015 RMK AO2 SLP209 T00720017
Conditions at: KLAS (LAS VEGAS , NV, US) observed 1556 UTC 20 January 2019
Temperature: 7.2°C (45°F)
Dewpoint: 1.7°C (35°F) [RH = 68%]
Pressure (altimeter): 30.15 inches Hg (1021.1 mb)
[Sea-level pressure: 1020.9 mb]
Winds: calm
Visibility: 10 or more miles (16+ km)
Ceiling: 25000 feet AGL
Clouds: overcast cloud deck at 25000 feet AGL
Weather: no significant weather observed at this time

METAR text: KLAS 201456Z 21003KT 10SM OVC250 06/02 A3015 RMK AO2 SLP209 T00610017 56012
Conditions at: KLAS (LAS VEGAS , NV, US) observed 1456 UTC 20 January 2019
Temperature: 6.1°C (43°F)
Dewpoint: 1.7°C (35°F) [RH = 73%]
Pressure (altimeter): 30.15 inches Hg (1021.1 mb)
[Sea-level pressure: 1020.9 mb]
Winds: from the SSW (210 degrees) at 3 MPH (3 knots; 1.5 m/s)
Visibility: 10 or more miles (16+ km)
Ceiling: 25000 feet AGL
Clouds: overcast cloud deck at 25000 feet AGL
Weather: no significant weather observed at this time

METAR text: KLAS 201356Z 26003KT 10SM OVC250 07/02 A3016 RMK AO2 SLP213 T00670017
Conditions at: KLAS (LAS VEGAS , NV, US) observed 1356 UTC 20 January 2019
Temperature: 6.7°C (44°F)
Dewpoint: 1.7°C (35°F) [RH = 70%]
Pressure (altimeter): 30.16 inches Hg (1021.4 mb)
[Sea-level pressure: 1021.3 mb]
Winds: from the W (260 degrees) at 3 MPH (3 knots; 1.5 m/s)
Visibility: 10 or more miles (16+ km)
Ceiling: 25000 feet AGL
Clouds: overcast cloud deck at 25000 feet AGL
Weather: no significant weather observed at this time

METAR text: KLAS 201256Z 24003KT 10SM BKN250 07/02 A3016 RMK AO2 SLP212 T00670017
Conditions at: KLAS (LAS VEGAS , NV, US) observed 1256 UTC 20 January 2019
Temperature: 6.7°C (44°F)
Dewpoint: 1.7°C (35°F) [RH = 70%]
Pressure (altimeter): 30.16 inches Hg (1021.4 mb)
[Sea-level pressure: 1021.2 mb]
Winds: from the WSW (240 degrees) at 3 MPH (3 knots; 1.5 m/s)
Visibility: 10 or more miles (16+ km)
Ceiling: 25000 feet AGL
Clouds: broken clouds at 25000 feet AGL
Weather: no significant weather observed at this time

METAR text: KLAS 201156Z 26003KT 10SM BKN250 07/02 A3019 RMK AO2 SLP219 T00670022 10100 20067 58011
Conditions at: KLAS (LAS VEGAS , NV, US) observed 1156 UTC 20 January 2019
Temperature: 6.7°C (44°F)
Dewpoint: 2.2°C (36°F) [RH = 73%]
Pressure (altimeter): 30.19 inches Hg (1022.4 mb)
[Sea-level pressure: 1021.9 mb]
Winds: from the W (260 degrees) at 3 MPH (3 knots; 1.5 m/s)
Visibility: 10 or more miles (16+ km)
Ceiling: 25000 feet AGL
Clouds: broken clouds at 25000 feet AGL
Weather: no significant weather observed at this time

METAR text: KLAS 201056Z 20003KT 10SM BKN250 07/02 A3021 RMK AO2 SLP224 T00720022
Conditions at: KLAS (LAS VEGAS , NV, US) observed 1056 UTC 20 January 2019
Temperature: 7.2°C (45°F)
Dewpoint: 2.2°C (36°F) [RH = 70%]
Pressure (altimeter): 30.21 inches Hg (1023.1 mb)
[Sea-level pressure: 1022.4 mb]
Winds: from the SSW (200 degrees) at 3 MPH (3 knots; 1.5 m/s)
Visibility: 10 or more miles (16+ km)
Ceiling: 25000 feet AGL
Clouds: broken clouds at 25000 feet AGL
Weather: no significant weather observed at this time

METAR text: KLAS 200956Z 00000KT 10SM BKN250 08/03 A3021 RMK AO2 SLP227 T00780028
Conditions at: KLAS (LAS VEGAS , NV, US) observed 0956 UTC 20 January 2019
Temperature: 7.8°C (46°F)
Dewpoint: 2.8°C (37°F) [RH = 71%]
Pressure (altimeter): 30.21 inches Hg (1023.1 mb)
[Sea-level pressure: 1022.7 mb]
Winds: calm
Visibility: 10 or more miles (16+ km)
Ceiling: 25000 feet AGL
Clouds: broken clouds at 25000 feet AGL
Weather: no significant weather observed at this time

METAR text: KLAS 200856Z 20003KT 10SM BKN250 08/03 A3022 RMK AO2 SLP230 T00830028 58012
Conditions at: KLAS (LAS VEGAS , NV, US) observed 0856 UTC 20 January 2019
Temperature: 8.3°C (47°F)
Dewpoint: 2.8°C (37°F) [RH = 68%]
Pressure (altimeter): 30.22 inches Hg (1023.5 mb)
[Sea-level pressure: 1023.0 mb]
Winds: from the SSW (200 degrees) at 3 MPH (3 knots; 1.5 m/s)
Visibility: 10 or more miles (16+ km)
Ceiling: 25000 feet AGL
Clouds: broken clouds at 25000 feet AGL
Weather: no significant weather observed at this time

METAR text: KLAS 200756Z 00000KT 10SM BKN250 09/03 A3025 RMK AO2 SLP240 T00890028 401670072
Conditions at: KLAS (LAS VEGAS , NV, US) observed 0756 UTC 20 January 2019
Temperature: 8.9°C (48°F)
Dewpoint: 2.8°C (37°F) [RH = 66%]
Pressure (altimeter): 30.25 inches Hg (1024.5 mb)
[Sea-level pressure: 1024.0 mb]
Winds: calm
Visibility: 10 or more miles (16+ km)
Ceiling: 25000 feet AGL
Clouds: broken clouds at 25000 feet AGL
Weather: no significant weather observed at this time

METAR text: KLAS 200656Z 23003KT 10SM BKN250 09/03 A3026 RMK AO2 SLP244 T00940028
Conditions at: KLAS (LAS VEGAS , NV, US) observed 0656 UTC 20 January 2019
Temperature: 9.4°C (49°F)
Dewpoint: 2.8°C (37°F) [RH = 63%]
Pressure (altimeter): 30.26 inches Hg (1024.8 mb)
[Sea-level pressure: 1024.4 mb]
Winds: from the SW (230 degrees) at 3 MPH (3 knots; 1.5 m/s)
Visibility: 10 or more miles (16+ km)
Ceiling: 25000 feet AGL
Clouds: broken clouds at 25000 feet AGL
Weather: no significant weather observed at this time

METAR text: KLAS 200556Z 22003KT 10SM BKN250 10/03 A3026 RMK AO2 SLP244 T01000028 10167 20100 58002
Conditions at: KLAS (LAS VEGAS , NV, US) observed 0556 UTC 20 January 2019
Temperature: 10.0°C (50°F)
Dewpoint: 2.8°C (37°F) [RH = 61%]
Pressure (altimeter): 30.26 inches Hg (1024.8 mb)
[Sea-level pressure: 1024.4 mb]
Winds: from the SW (220 degrees) at 3 MPH (3 knots; 1.5 m/s)
Visibility: 10 or more miles (16+ km)
Ceiling: 25000 feet AGL
Clouds: broken clouds at 25000 feet AGL
Weather: no significant weather observed at this time

METAR text: KLAS 200456Z 00000KT 10SM BKN250 11/02 A3026 RMK AO2 SLP245 T01110017
Conditions at: KLAS (LAS VEGAS , NV, US) observed 0456 UTC 20 January 2019
Temperature: 11.1°C (52°F)
Dewpoint: 1.7°C (35°F) [RH = 52%]
Pressure (altimeter): 30.26 inches Hg (1024.8 mb)
[Sea-level pressure: 1024.5 mb]
Winds: calm
Visibility: 10 or more miles (16+ km)
Ceiling: 25000 feet AGL
Clouds: broken clouds at 25000 feet AGL
Weather: no significant weather observed at this time

METAR text: KLAS 200356Z 21003KT 10SM BKN250 12/01 A3030 RMK AO2 SLP261 T01170011
Conditions at: KLAS (LAS VEGAS , NV, US) observed 0356 UTC 20 January 2019
Temperature: 11.7°C (53°F)
Dewpoint: 1.1°C (34°F) [RH = 48%]
Pressure (altimeter): 30.30 inches Hg (1026.2 mb)
[Sea-level pressure: 1026.1 mb]
Winds: from the SSW (210 degrees) at 3 MPH (3 knots; 1.5 m/s)
Visibility: 10 or more miles (16+ km)
Ceiling: 25000 feet AGL
Clouds: broken clouds at 25000 feet AGL
Weather: no significant weather observed at this time

METAR text: KLAS 200256Z 00000KT 10SM BKN250 13/01 A3027 RMK AO2 SLP248 T01280006 55002
Conditions at: KLAS (LAS VEGAS , NV, US) observed 0256 UTC 20 January 2019
Temperature: 12.8°C (55°F)
Dewpoint: 0.6°C (33°F) [RH = 43%]
Pressure (altimeter): 30.27 inches Hg (1025.1 mb)
[Sea-level pressure: 1024.8 mb]
Winds: calm
Visibility: 10 or more miles (16+ km)
Ceiling: 25000 feet AGL
Clouds: broken clouds at 25000 feet AGL
Weather: no significant weather observed at this time

METAR text: KLAS 200156Z 00000KT 10SM BKN250 13/01 A3026 RMK AO2 SLP246 T01330006
Conditions at: KLAS (LAS VEGAS , NV, US) observed 0156 UTC 20 January 2019
Temperature: 13.3°C (56°F)
Dewpoint: 0.6°C (33°F) [RH = 42%]
Pressure (altimeter): 30.26 inches Hg (1024.8 mb)
[Sea-level pressure: 1024.6 mb]
Winds: calm
Visibility: 10 or more miles (16+ km)
Ceiling: 25000 feet AGL
Clouds: broken clouds at 25000 feet AGL
Weather: no significant weather observed at this time

METAR text: KLAS 200056Z 09006KT 10SM BKN250 14/M01 A3026 RMK AO2 SLP246 T01441006
Conditions at: KLAS (LAS VEGAS , NV, US) observed 0056 UTC 20 January 2019
Temperature: 14.4°C (58°F)
Dewpoint: -0.6°C (31°F) [RH = 36%]
Pressure (altimeter): 30.26 inches Hg (1024.8 mb)
[Sea-level pressure: 1024.6 mb]
Winds: from the E (90 degrees) at 7 MPH (6 knots; 3.1 m/s)
Visibility: 10 or more miles (16+ km)
Ceiling: 25000 feet AGL
Clouds: broken clouds at 25000 feet AGL
Weather: no significant weather observed at this time

METAR text: KLAS 192356Z 10003KT 10SM BKN250 17/M02 A3027 RMK AO2 SLP246 T01671022 10167 20117 56023
Conditions at: KLAS (LAS VEGAS , NV, US) observed 2356 UTC 19 January 2019
Temperature: 16.7°C (62°F)
Dewpoint: -2.2°C (28°F) [RH = 27%]
Pressure (altimeter): 30.27 inches Hg (1025.1 mb)
[Sea-level pressure: 1024.6 mb]
Winds: from the E (100 degrees) at 3 MPH (3 knots; 1.5 m/s)
Visibility: 10 or more miles (16+ km)
Ceiling: 25000 feet AGL
Clouds: broken clouds at 25000 feet AGL
Weather: no significant weather observed at this time

METAR text: KLAS 192256Z 00000KT 10SM SCT250 16/M03 A3029 RMK AO2 SLP252 T01611028
Conditions at: KLAS (LAS VEGAS , NV, US) observed 2256 UTC 19 January 2019
Temperature: 16.1°C (61°F)
Dewpoint: -2.8°C (27°F) [RH = 27%]
Pressure (altimeter): 30.29 inches Hg (1025.8 mb)
[Sea-level pressure: 1025.2 mb]
Winds: calm
Visibility: 10 or more miles (16+ km)
Ceiling: at least 12,000 feet AGL
Clouds: scattered clouds at 25000 feet AGL
Weather: no significant weather observed at this time

METAR text: KLAS 192156Z VRB03KT 10SM SCT250 16/M02 A3031 RMK AO2 SLP259 T01561022
Conditions at: KLAS (LAS VEGAS , NV, US) observed 2156 UTC 19 January 2019
Temperature: 15.6°C (60°F)
Dewpoint: -2.2°C (28°F) [RH = 29%]
Pressure (altimeter): 30.31 inches Hg (1026.5 mb)
[Sea-level pressure: 1025.9 mb]
Winds: variable direction winds at 3 MPH (3 knots; 1.5 m/s)
Visibility: 10 or more miles (16+ km)
Ceiling: at least 12,000 feet AGL
Clouds: scattered clouds at 25000 feet AGL
Weather: no significant weather observed at this time

METAR text: KLAS 192056Z 00000KT 10SM SCT250 16/M02 A3034 RMK AO2 SLP271 T01611017 58027
Conditions at: KLAS (LAS VEGAS , NV, US) observed 2056 UTC 19 January 2019
Temperature: 16.1°C (61°F)
Dewpoint: -1.7°C (29°F) [RH = 29%]
Pressure (altimeter): 30.34 inches Hg (1027.5 mb)
[Sea-level pressure: 1027.1 mb]
Winds: calm
Visibility: 10 or more miles (16+ km)
Ceiling: at least 12,000 feet AGL
Clouds: scattered clouds at 25000 feet AGL
Weather: no significant weather observed at this time

METAR text: KLAS 191956Z 00000KT 10SM BKN250 14/M02 A3039 RMK AO2 SLP285 T01441017
Conditions at: KLAS (LAS VEGAS , NV, US) observed 1956 UTC 19 January 2019
Temperature: 14.4°C (58°F)
Dewpoint: -1.7°C (29°F) [RH = 33%]
Pressure (altimeter): 30.39 inches Hg (1029.2 mb)
[Sea-level pressure: 1028.5 mb]
Winds: calm
Visibility: 10 or more miles (16+ km)
Ceiling: 25000 feet AGL
Clouds: broken clouds at 25000 feet AGL
Weather: no significant weather observed at this time

METAR text: KLAS 191856Z 00000KT 10SM BKN250 13/M01 A3042 RMK AO2 SLP297 T01331011
Conditions at: KLAS (LAS VEGAS , NV, US) observed 1856 UTC 19 January 2019
Temperature: 13.3°C (56°F)
Dewpoint: -1.1°C (30°F) [RH = 37%]
Pressure (altimeter): 30.42 inches Hg (1030.2 mb)
[Sea-level pressure: 1029.7 mb]
Winds: calm
Visibility: 10 or more miles (16+ km)
Ceiling: 25000 feet AGL
Clouds: broken clouds at 25000 feet AGL
Weather: no significant weather observed at this time

METAR text: KLAS 191756Z 00000KT 10SM BKN250 12/M01 A3043 RMK AO2 SLP303 T01171006 10117 20072 51013
Conditions at: KLAS (LAS VEGAS , NV, US) observed 1756 UTC 19 January 2019
Temperature: 11.7°C (53°F)
Dewpoint: -0.6°C (31°F) [RH = 43%]
Pressure (altimeter): 30.43 inches Hg (1030.6 mb)
[Sea-level pressure: 1030.3 mb]
Winds: calm
Visibility: 10 or more miles (16+ km)
Ceiling: 25000 feet AGL
Clouds: broken clouds at 25000 feet AGL
Weather: no significant weather observed at this time

METAR text: KLAS 191656Z 24003KT 10SM BKN250 09/02 A3043 RMK AO2 SLP302 T00940017
Conditions at: KLAS (LAS VEGAS , NV, US) observed 1656 UTC 19 January 2019
Temperature: 9.4°C (49°F)
Dewpoint: 1.7°C (35°F) [RH = 59%]
Pressure (altimeter): 30.43 inches Hg (1030.6 mb)
[Sea-level pressure: 1030.2 mb]
Winds: from the WSW (240 degrees) at 3 MPH (3 knots; 1.5 m/s)
Visibility: 10 or more miles (16+ km)
Ceiling: 25000 feet AGL
Clouds: broken clouds at 25000 feet AGL
Weather: no significant weather observed at this time

METAR text: KLAS 191556Z 20003KT 10SM OVC250 08/02 A3040 RMK AO2 SLP295 T00780017
Conditions at: KLAS (LAS VEGAS , NV, US) observed 1556 UTC 19 January 2019
Temperature: 7.8°C (46°F)
Dewpoint: 1.7°C (35°F) [RH = 65%]
Pressure (altimeter): 30.40 inches Hg (1029.5 mb)
[Sea-level pressure: 1029.5 mb]
Winds: from the SSW (200 degrees) at 3 MPH (3 knots; 1.5 m/s)
Visibility: 10 or more miles (16+ km)
Ceiling: 25000 feet AGL
Clouds: overcast cloud deck at 25000 feet AGL
Weather: no significant weather observed at this time

METAR text: KLAS 191456Z 00000KT 10SM OVC250 07/02 A3039 RMK AO2 SLP291 T00720017 53011
Conditions at: KLAS (LAS VEGAS , NV, US) observed 1456 UTC 19 January 2019
Temperature: 7.2°C (45°F)
Dewpoint: 1.7°C (35°F) [RH = 68%]
Pressure (altimeter): 30.39 inches Hg (1029.2 mb)
[Sea-level pressure: 1029.1 mb]
Winds: calm
Visibility: 10 or more miles (16+ km)
Ceiling: 25000 feet AGL
Clouds: overcast cloud deck at 25000 feet AGL
Weather: no significant weather observed at this time

METAR text: KLAS 191356Z 20004KT 10SM OVC250 07/02 A3038 RMK AO2 SLP284 T00720017
Conditions at: KLAS (LAS VEGAS , NV, US) observed 1356 UTC 19 January 2019
Temperature: 7.2°C (45°F)
Dewpoint: 1.7°C (35°F) [RH = 68%]
Pressure (altimeter): 30.38 inches Hg (1028.9 mb)
[Sea-level pressure: 1028.4 mb]
Winds: from the SSW (200 degrees) at 5 MPH (4 knots; 2.1 m/s)
Visibility: 10 or more miles (16+ km)
Ceiling: 25000 feet AGL
Clouds: overcast cloud deck at 25000 feet AGL
Weather: no significant weather observed at this time

METAR text: KLAS 191256Z 00000KT 10SM OVC250 07/02 A3036 RMK AO2 SLP277 T00720017
Conditions at: KLAS (LAS VEGAS , NV, US) observed 1256 UTC 19 January 2019
Temperature: 7.2°C (45°F)
Dewpoint: 1.7°C (35°F) [RH = 68%]
Pressure (altimeter): 30.36 inches Hg (1028.2 mb)
[Sea-level pressure: 1027.7 mb]
Winds: calm
Visibility: 10 or more miles (16+ km)
Ceiling: 25000 feet AGL
Clouds: overcast cloud deck at 25000 feet AGL
Weather: no significant weather observed at this time

METAR text: KLAS 191156Z 00000KT 10SM BKN250 07/02 A3035 RMK AO2 SLP276 T00720022 10106 20072 50000
Conditions at: KLAS (LAS VEGAS , NV, US) observed 1156 UTC 19 January 2019
Temperature: 7.2°C (45°F)
Dewpoint: 2.2°C (36°F) [RH = 70%]
Pressure (altimeter): 30.35 inches Hg (1027.9 mb)
[Sea-level pressure: 1027.6 mb]
Winds: calm
Visibility: 10 or more miles (16+ km)
Ceiling: 25000 feet AGL
Clouds: broken clouds at 25000 feet AGL
Weather: no significant weather observed at this time

Forecast for: KLAS (LAS VEGAS , NV, US)
Text: KLAS 202334Z 2100/2206 06007KT P6SM OVC250
Forecast period: 0000 to 0300 UTC 21 January 2019
Forecast type: FROM: standard forecast or significant change
Winds: from the ENE (60 degrees) at 8 MPH (7 knots; 3.6 m/s)
Visibility: 6 or more miles 10+ km)
Ceiling: 25000 feet AGL
Clouds: overcast cloud deck at 25000 feet AGL
Weather: no significant weather forecast for this period
Text: FM210300 15010G16KT P6SM BKN250
Forecast period: 0300 to 0600 UTC 21 January 2019
Forecast type: FROM: standard forecast or significant change
Winds: from the SSE (150 degrees) at 12 MPH (10 knots; 5.1 m/s)
gusting to 18 MPH (16 knots; 8.2 m/s)
Visibility: 6 or more miles 10+ km)
Ceiling: 25000 feet AGL
Clouds: broken clouds at 25000 feet AGL
Weather: no significant weather forecast for this period
Text: FM210600 19012G20KT P6SM BKN250
Forecast period: 0600 to 0800 UTC 21 January 2019
Forecast type: FROM: standard forecast or significant change
Winds: from the S (190 degrees) at 14 MPH (12 knots; 6.2 m/s)
gusting to 23 MPH (20 knots; 10.3 m/s)
Visibility: 6 or more miles 10+ km)
Ceiling: 25000 feet AGL
Clouds: broken clouds at 25000 feet AGL
Weather: no significant weather forecast for this period
Text: FM210800 22027G35KT P6SM FEW060 SCT250
Forecast period: 0800 to 1500 UTC 21 January 2019
Forecast type: FROM: standard forecast or significant change
Winds: from the SW (220 degrees) at 31 MPH (27 knots; 13.9 m/s)
gusting to 40 MPH (35 knots; 18.0 m/s)
Visibility: 6 or more miles 10+ km)
Ceiling: at least 12,000 feet AGL
Clouds: few clouds at 6000 feet AGL
scattered clouds at 25000 feet AGL
Weather: no significant weather forecast for this period
Text: FM211500 28023G32KT P6SM FEW060 SCT140
Forecast period: 1500 to 1600 UTC 21 January 2019
Forecast type: FROM: standard forecast or significant change
Winds: from the W (280 degrees) at 26 MPH (23 knots; 11.8 m/s)
gusting to 37 MPH (32 knots; 16.5 m/s)
Visibility: 6 or more miles 10+ km)
Ceiling: at least 12,000 feet AGL
Clouds: few clouds at 6000 feet AGL
scattered clouds at 14000 feet AGL
Weather: no significant weather forecast for this period
Text: FM211600 32022G32KT P6SM SCT060 SCT100
Forecast period: 1600 UTC 21 January 2019 to 0200 UTC 22 January 2019
Forecast type: FROM: standard forecast or significant change
Winds: from the NW (320 degrees) at 25 MPH (22 knots; 11.3 m/s)
gusting to 37 MPH (32 knots; 16.5 m/s)
Visibility: 6 or more miles 10+ km)
Ceiling: at least 12,000 feet AGL
Clouds: scattered clouds at 6000 feet AGL
scattered clouds at 10000 feet AGL
Weather: no significant weather forecast for this period
Text: FM220200 34012G18KT P6SM SKC
Forecast period: 0200 to 0600 UTC 22 January 2019
Forecast type: FROM: standard forecast or significant change
Winds: from the NNW (340 degrees) at 14 MPH (12 knots; 6.2 m/s)
gusting to 21 MPH (18 knots; 9.3 m/s)
Visibility: 6 or more miles 10+ km)
Clouds: clear skies
Weather: no significant weather forecast for this period